createdAt,value
2022-11-02T00:02:17.326Z,97.53
2022-11-02T00:04:43.991Z,97.58
2022-11-02T00:07:10.902Z,97.25
2022-11-02T00:09:38.878Z,97.27
2022-11-02T00:12:06.474Z,97.56
2022-11-02T00:14:33.084Z,96.91
2022-11-02T00:16:59.861Z,97.24
2022-11-02T00:19:27.215Z,97.21
2022-11-02T00:21:53.807Z,96.83
2022-11-02T00:24:20.427Z,96.64
2022-11-02T00:26:48.306Z,96.37
2022-11-02T00:29:14.889Z,96.07
2022-11-02T00:31:41.869Z,95.87
2022-11-02T00:34:08.466Z,95.85
2022-11-02T00:36:35.010Z,95.69
2022-11-02T00:39:02.037Z,95.18
2022-11-02T00:41:28.591Z,94.90
2022-11-02T00:43:56.607Z,94.57
2022-11-02T00:46:23.240Z,94.54
2022-11-02T00:48:49.896Z,94.02
2022-11-02T00:51:17.026Z,93.54
2022-11-02T00:53:44.564Z,93.31
2022-11-02T00:56:11.104Z,92.84
2022-11-02T00:58:37.673Z,92.45
2022-11-02T01:01:06.966Z,92.20
2022-11-02T01:03:33.955Z,91.46
2022-11-02T01:06:08.054Z,91.05
2022-11-02T01:08:34.678Z,90.28
2022-11-02T01:11:09.487Z,89.81
2022-11-02T01:13:36.102Z,89.81
2022-11-02T01:16:03.803Z,89.80
2022-11-02T01:18:31.732Z,89.61
2022-11-02T01:20:58.890Z,89.77
2022-11-02T01:23:25.819Z,89.33
2022-11-02T01:25:52.532Z,87.13
2022-11-02T01:28:19.446Z,86.98
2022-11-02T01:30:47.160Z,86.81
2022-11-02T01:33:13.823Z,86.47
2022-11-02T01:35:41.715Z,84.64
2022-11-02T01:38:08.328Z,84.25
2022-11-02T01:40:35.485Z,84.73
2022-11-02T01:43:20.917Z,83.51
2022-11-02T01:45:48.699Z,82.90
2022-11-02T01:48:15.710Z,82.67
2022-11-02T01:50:43.709Z,82.37
2022-11-02T01:53:10.686Z,81.58
2022-11-02T01:55:37.268Z,81.76
2022-11-02T01:58:08.670Z,81.36
2022-11-02T02:00:35.876Z,80.65
2022-11-02T02:03:07.133Z,81.17
2022-11-02T02:05:35.833Z,81.24
2022-11-02T02:08:04.545Z,80.73
2022-11-02T02:10:32.042Z,80.55
2022-11-02T02:12:58.769Z,81.03
2022-11-02T02:15:31.702Z,81.48
2022-11-02T02:18:04.113Z,79.45
2022-11-02T02:20:47.235Z,79.90
2022-11-02T02:23:34.889Z,78.24
2022-11-02T02:26:19.980Z,77.83
2022-11-02T02:28:53.255Z,77.52
2022-11-02T02:31:26.617Z,77.36
2022-11-02T02:33:58.582Z,77.02
2022-11-02T02:36:31.411Z,77.11
2022-11-02T02:39:05.374Z,76.67
2022-11-02T02:41:38.925Z,76.21
2022-11-02T02:44:10.521Z,75.86
2022-11-02T02:46:42.736Z,76.00
2022-11-02T02:49:12.962Z,75.72
2022-11-02T02:51:41.725Z,75.11
2022-11-02T02:54:13.551Z,75.34
2022-11-02T02:59:20.311Z,74.96
2022-11-02T03:01:48.210Z,74.82
2022-11-02T03:04:15.289Z,75.17
2022-11-02T03:06:46.305Z,75.63
2022-11-02T03:09:22.082Z,75.55
2022-11-02T03:11:59.720Z,74.96
2022-11-02T03:14:37.780Z,75.26
2022-11-02T03:17:16.568Z,75.68
2022-11-02T03:19:53.256Z,76.14
2022-11-02T03:22:30.739Z,76.34
2022-11-02T03:25:07.840Z,76.54
2022-11-02T03:27:40.364Z,76.40
2022-11-02T03:30:13.317Z,76.84
2022-11-02T03:32:48.561Z,76.77
2022-11-02T03:35:20.292Z,76.73
2022-11-02T03:37:52.338Z,76.77
2022-11-02T03:40:23.472Z,76.60
2022-11-02T03:42:52.289Z,76.48
2022-11-02T03:45:23.482Z,76.70
2022-11-02T03:47:55.398Z,76.29
2022-11-02T03:50:23.467Z,76.19
2022-11-02T03:52:56.386Z,75.92
2022-11-02T03:55:29.423Z,75.66
2022-11-02T03:57:56.472Z,75.50
2022-11-02T04:00:32.174Z,75.06
2022-11-02T04:03:04.487Z,75.05
2022-11-02T04:05:36.359Z,75.65
2022-11-02T04:08:15.166Z,74.90
2022-11-02T04:10:43.071Z,74.80
2022-11-02T04:13:09.809Z,75.14
2022-11-02T04:15:38.023Z,75.38
2022-11-02T04:18:05.303Z,74.87
2022-11-02T04:20:32.278Z,74.55
2022-11-02T04:22:58.842Z,74.85
2022-11-02T04:25:26.319Z,74.51
2022-11-02T04:28:14.359Z,74.39
2022-11-02T04:30:49.665Z,74.33
2022-11-02T04:33:17.944Z,74.01
2022-11-02T04:35:50.897Z,74.01
2022-11-02T04:38:19.068Z,73.75
2022-11-02T04:40:46.395Z,73.72
2022-11-02T04:43:14.381Z,73.64
2022-11-02T04:45:43.004Z,73.74
2022-11-02T04:48:11.444Z,73.63
2022-11-02T04:50:38.725Z,73.51
2022-11-02T04:53:06.436Z,73.83
2022-11-02T04:55:33.048Z,73.93
2022-11-02T04:57:59.736Z,73.84
2022-11-02T05:00:26.878Z,73.78
2022-11-02T05:02:54.439Z,73.52
2022-11-02T05:05:24.381Z,74.39
2022-11-02T05:07:54.288Z,74.08
2022-11-02T05:10:21.008Z,74.31
2022-11-02T05:12:48.864Z,74.15
2022-11-02T05:15:15.667Z,74.45
2022-11-02T05:17:42.558Z,74.88
2022-11-02T05:20:10.245Z,74.99
2022-11-02T05:22:41.199Z,75.09
2022-11-02T05:25:08.765Z,74.80
2022-11-02T05:27:36.305Z,75.56
2022-11-02T05:30:04.458Z,75.41
2022-11-02T05:32:31.046Z,76.18
2022-11-02T05:34:58.141Z,76.03
2022-11-02T05:37:25.079Z,75.91
2022-11-02T05:39:53.678Z,75.94
2022-11-02T05:42:20.302Z,75.84
2022-11-02T05:44:47.637Z,75.68
2022-11-02T05:47:14.164Z,75.75
2022-11-02T05:49:40.809Z,75.57
2022-11-02T05:52:07.380Z,75.25
2022-11-02T05:54:34.092Z,75.11
2022-11-02T05:57:01.969Z,74.48
2022-11-02T05:59:28.581Z,74.63
2022-11-02T06:01:55.168Z,74.44
2022-11-02T06:04:21.924Z,74.56
2022-11-02T06:06:48.624Z,74.56
2022-11-02T06:09:15.358Z,74.17
2022-11-02T06:11:41.906Z,74.47
2022-11-02T06:14:09.974Z,74.54
2022-11-02T06:16:36.508Z,74.13
2022-11-02T06:19:03.135Z,74.10
2022-11-02T06:21:29.866Z,74.06
2022-11-02T06:23:56.450Z,74.46
2022-11-02T06:26:22.961Z,74.70
2022-11-02T06:28:49.521Z,74.31
2022-11-02T06:31:17.553Z,74.55
2022-11-02T06:33:44.407Z,74.56
2022-11-02T06:36:11.178Z,74.23
2022-11-02T06:38:37.773Z,74.45
2022-11-02T06:41:04.653Z,74.09
2022-11-02T06:43:32.656Z,73.87
2022-11-02T06:45:59.247Z,73.55
2022-11-02T06:48:34.355Z,73.97
2022-11-02T06:51:02.391Z,73.47
2022-11-02T06:53:29.069Z,73.57
2022-11-02T06:55:57.187Z,73.53
2022-11-02T06:58:24.100Z,73.33
2022-11-02T07:00:51.298Z,73.00
2022-11-02T07:03:17.881Z,72.77
2022-11-02T07:05:51.578Z,72.04
2022-11-02T07:08:18.852Z,72.44
2022-11-02T07:10:45.478Z,72.15
2022-11-02T07:13:12.315Z,72.38
2022-11-02T07:15:38.900Z,71.81
2022-11-02T07:18:05.863Z,71.86
2022-11-02T07:20:32.517Z,71.67
2022-11-02T07:23:01.593Z,71.64
2022-11-02T07:25:30.936Z,71.49
2022-11-02T07:27:58.248Z,70.95
2022-11-02T07:30:24.775Z,70.83
2022-11-02T07:32:51.340Z,70.77
2022-11-02T07:35:17.990Z,70.71
2022-11-02T07:37:44.881Z,70.45
2022-11-02T07:40:13.216Z,70.18
2022-11-02T07:42:43.868Z,70.14
2022-11-02T07:45:11.867Z,69.92
2022-11-02T07:47:42.248Z,70.16
2022-11-02T07:50:09.151Z,69.62
2022-11-02T07:52:35.665Z,69.39
2022-11-02T07:55:02.257Z,69.48
2022-11-02T07:57:30.155Z,68.50
2022-11-02T07:59:56.760Z,68.64
2022-11-02T08:02:23.412Z,67.86
2022-11-02T08:04:50.112Z,67.59
2022-11-02T08:07:16.595Z,67.59
2022-11-02T08:09:43.129Z,67.55
2022-11-02T08:12:09.661Z,66.93
2022-11-02T08:14:37.589Z,66.97
2022-11-02T08:17:04.092Z,66.97
2022-11-02T08:19:30.728Z,66.61
2022-11-02T08:21:59.571Z,66.52
2022-11-02T08:24:26.172Z,66.33
2022-11-02T08:26:54.778Z,66.42
2022-11-02T08:29:21.862Z,66.79
2022-11-02T08:31:49.721Z,66.38
2022-11-02T08:34:16.311Z,66.31
2022-11-02T08:36:43.031Z,66.66
2022-11-02T08:39:12.316Z,65.52
2022-11-02T08:41:41.321Z,65.64
2022-11-02T08:44:07.882Z,65.60
2022-11-02T08:46:34.463Z,64.83
2022-11-02T08:49:02.463Z,64.92
2022-11-02T08:51:29.009Z,63.79
2022-11-02T08:53:55.537Z,64.15
2022-11-02T08:56:22.152Z,63.67
2022-11-02T08:58:48.647Z,63.07
2022-11-02T09:01:15.328Z,62.57
2022-11-02T09:03:41.901Z,61.93
2022-11-02T09:06:09.828Z,61.34
2022-11-02T09:08:36.394Z,61.56
2022-11-02T09:11:04.479Z,61.20
2022-11-02T09:13:31.218Z,60.39
2022-11-02T09:15:59.369Z,59.48
2022-11-02T09:18:26.599Z,60.08
2022-11-02T09:20:53.341Z,59.83
2022-11-02T09:23:22.033Z,59.18
2022-11-02T09:25:49.543Z,58.40
2022-11-02T09:28:16.113Z,58.70
2022-11-02T09:30:42.843Z,58.48
2022-11-02T09:33:10.037Z,58.83
2022-11-02T09:35:38.854Z,58.00
2022-11-02T09:38:05.761Z,58.02
2022-11-02T09:40:37.147Z,58.62
2022-11-02T09:43:13.259Z,57.02
2022-11-02T09:45:54.419Z,56.26
2022-11-02T09:48:28.672Z,56.49
2022-11-02T09:51:02.336Z,56.55
2022-11-02T09:53:39.189Z,55.89
2022-11-02T09:56:08.890Z,54.84
2022-11-02T09:58:38.291Z,55.17
2022-11-02T10:01:16.750Z,53.82
2022-11-02T10:03:58.810Z,54.17
2022-11-02T10:06:25.654Z,54.19
2022-11-02T10:09:01.556Z,53.79
2022-11-02T10:11:44.432Z,54.21
2022-11-02T10:14:15.520Z,53.92
2022-11-02T10:16:50.858Z,53.47
2022-11-02T10:19:20.056Z,51.75
2022-11-02T10:21:48.101Z,51.35
2022-11-02T10:24:23.990Z,49.83
2022-11-02T10:26:55.923Z,50.80
2022-11-02T10:29:36.465Z,50.92
2022-11-02T10:32:03.175Z,49.85
2022-11-02T10:34:30.460Z,50.03
2022-11-02T10:37:13.766Z,50.08
2022-11-02T10:39:50.507Z,50.39
2022-11-02T10:42:50.077Z,49.99
2022-11-02T10:45:36.080Z,50.60
2022-11-02T10:48:08.440Z,48.86
2022-11-02T10:50:46.553Z,49.44
2022-11-02T10:53:42.715Z,49.02
2022-11-02T10:56:10.170Z,46.62
2022-11-02T10:58:43.805Z,48.72
2022-11-02T11:01:12.214Z,48.80
2022-11-02T11:03:56.503Z,47.68
2022-11-02T11:06:24.539Z,46.09
2022-11-02T11:08:51.585Z,47.16
2022-11-02T11:11:21.308Z,47.44
2022-11-02T11:16:47.619Z,45.65
2022-11-02T11:19:38.204Z,46.54
2022-11-02T11:22:23.766Z,46.39
2022-11-02T11:24:51.141Z,46.55
2022-11-02T11:27:19.085Z,45.98
2022-11-02T11:29:50.451Z,44.13
2022-11-02T11:32:19.572Z,45.17
2022-11-02T11:34:54.656Z,46.36
2022-11-02T11:37:22.715Z,46.85
2022-11-02T11:39:54.957Z,45.19
2022-11-02T11:42:24.807Z,46.56
2022-11-02T11:44:58.481Z,45.86
2022-11-02T11:47:32.061Z,45.68
2022-11-02T11:50:14.544Z,45.85
2022-11-02T11:53:07.045Z,45.12
2022-11-02T11:55:34.388Z,45.28
2022-11-02T11:58:13.252Z,45.40
2022-11-02T12:00:41.882Z,45.25
2022-11-02T12:03:10.808Z,45.62
2022-11-02T12:05:49.307Z,46.83
2022-11-02T12:08:30.846Z,46.34
2022-11-02T12:11:18.964Z,45.16
2022-11-02T12:14:00.238Z,46.17
2022-11-02T12:16:51.768Z,44.81
2022-11-02T12:19:31.268Z,45.52
2022-11-02T12:22:10.082Z,44.80
2022-11-02T12:25:01.011Z,43.49
2022-11-02T12:27:36.987Z,43.86
2022-11-02T12:30:11.877Z,43.22
2022-11-02T12:32:51.173Z,43.13
2022-11-02T12:35:50.867Z,42.30
2022-11-02T12:38:44.031Z,42.83
2022-11-02T12:41:13.412Z,41.81
2022-11-02T12:43:42.718Z,41.79
2022-11-02T12:46:33.927Z,43.15
2022-11-02T12:49:20.169Z,43.22
2022-11-02T12:51:57.087Z,42.62
2022-11-02T12:54:28.605Z,42.37
2022-11-02T12:56:55.291Z,41.90
2022-11-02T12:59:24.949Z,41.82
2022-11-02T13:01:56.421Z,42.66
2022-11-02T13:04:29.583Z,41.75
2022-11-02T13:07:02.116Z,42.05
2022-11-02T13:09:34.548Z,41.74
2022-11-02T13:12:03.641Z,41.71
2022-11-02T13:14:38.971Z,40.41
2022-11-02T13:17:11.878Z,42.02
2022-11-02T13:19:43.826Z,41.59
2022-11-02T13:22:13.935Z,42.35
2022-11-02T13:24:43.708Z,42.04
2022-11-02T13:27:36.318Z,42.63
2022-11-02T13:30:12.682Z,42.39
2022-11-02T13:32:42.449Z,43.14
2022-11-02T13:35:18.930Z,43.50
2022-11-02T13:37:49.563Z,42.71
2022-11-02T13:40:23.221Z,43.52
2022-11-02T13:43:39.303Z,42.92
2022-11-02T13:46:21.434Z,43.88
2022-11-02T13:48:54.745Z,43.78
2022-11-02T13:51:31.034Z,44.23
2022-11-02T13:54:02.262Z,44.11
2022-11-02T13:56:30.302Z,43.28
2022-11-02T13:59:00.744Z,43.44
2022-11-02T14:01:30.194Z,44.12
2022-11-02T14:04:02.572Z,44.56
2022-11-02T14:06:32.965Z,44.54
2022-11-02T14:09:02.494Z,44.82
2022-11-02T14:11:45.057Z,44.42
2022-11-02T14:14:29.360Z,45.15
2022-11-02T14:17:13.927Z,45.16
2022-11-02T14:19:54.765Z,44.96
2022-11-02T14:22:22.841Z,45.13
2022-11-02T14:24:54.090Z,45.92
2022-11-02T14:27:30.386Z,46.21
2022-11-02T14:29:57.787Z,46.57
2022-11-02T14:32:51.715Z,46.24
2022-11-02T14:35:38.641Z,46.06
2022-11-02T14:38:28.275Z,46.93
2022-11-02T14:41:06.402Z,47.68
2022-11-02T14:44:20.660Z,47.34
2022-11-02T14:46:54.519Z,46.90
2022-11-02T14:49:24.677Z,47.22
2022-11-02T14:52:04.230Z,46.28
2022-11-02T14:54:37.020Z,47.04
2022-11-02T14:57:06.613Z,46.73
2022-11-02T14:59:37.303Z,46.88
2022-11-02T15:02:09.212Z,47.31
2022-11-02T15:04:36.446Z,47.43
2022-11-02T15:07:05.723Z,48.29
2022-11-02T15:09:55.343Z,49.74
2022-11-02T15:12:34.871Z,48.16
2022-11-02T15:15:20.319Z,48.81
2022-11-02T15:18:16.236Z,48.84
2022-11-02T15:20:46.228Z,48.72
2022-11-02T15:23:30.513Z,50.82
2022-11-02T15:26:04.899Z,51.48
2022-11-02T15:28:34.315Z,51.96
2022-11-02T15:31:06.915Z,52.76
2022-11-02T15:33:36.879Z,51.69
2022-11-02T15:36:06.397Z,51.51
2022-11-02T15:38:39.393Z,52.38
2022-11-02T15:41:18.567Z,53.08
2022-11-02T15:44:07.258Z,53.33
2022-11-02T15:46:44.979Z,55.55
2022-11-02T15:49:25.965Z,55.60
2022-11-02T15:52:00.981Z,55.69
2022-11-02T15:54:46.419Z,56.38
2022-11-02T15:57:24.672Z,56.55
2022-11-02T16:00:13.691Z,57.46
2022-11-02T16:02:42.621Z,58.77
2022-11-02T16:05:17.631Z,59.05
2022-11-02T16:08:05.292Z,59.63
2022-11-02T16:10:32.697Z,59.65
2022-11-02T16:13:11.349Z,60.23
2022-11-02T16:15:38.832Z,60.50
2022-11-02T16:18:05.712Z,61.11
2022-11-02T16:20:35.728Z,61.09
2022-11-02T16:23:04.922Z,61.84
2022-11-02T16:25:39.677Z,62.22
2022-11-02T16:28:17.854Z,62.29
2022-11-02T16:30:58.001Z,63.09
2022-11-02T16:33:25.267Z,62.94
2022-11-02T16:35:52.854Z,63.80
2022-11-02T16:38:20.738Z,65.21
2022-11-02T16:40:47.628Z,65.41
2022-11-02T16:43:16.432Z,65.79
2022-11-02T16:45:43.912Z,66.26
2022-11-02T16:48:17.455Z,66.05
2022-11-02T16:51:03.457Z,67.03
2022-11-02T16:53:32.628Z,67.14
2022-11-02T16:56:14.439Z,67.63
2022-11-02T16:58:46.448Z,68.15
2022-11-02T17:01:20.816Z,67.37
2022-11-02T17:03:47.806Z,67.96
2022-11-02T17:06:14.792Z,69.52
2022-11-02T17:08:42.320Z,70.41
2022-11-02T17:11:14.653Z,70.51
2022-11-02T17:13:49.492Z,70.69
2022-11-02T17:16:16.365Z,70.74
2022-11-02T17:18:43.200Z,70.91
2022-11-02T17:21:23.465Z,71.56
2022-11-02T17:23:50.648Z,71.31
2022-11-02T17:26:35.585Z,72.44
2022-11-02T17:29:29.790Z,72.94
2022-11-02T17:31:57.983Z,73.16
2022-11-02T17:34:24.961Z,73.53
2022-11-02T17:36:51.669Z,73.61
2022-11-02T17:39:19.912Z,73.37
2022-11-02T17:41:52.561Z,74.09
2022-11-02T17:44:20.539Z,75.35
2022-11-02T17:46:47.052Z,75.38
2022-11-02T17:49:13.610Z,75.39
2022-11-02T17:51:40.588Z,75.45
2022-11-02T17:54:09.030Z,75.29
2022-11-02T17:56:35.623Z,76.05
2022-11-02T17:59:02.280Z,77.20
2022-11-02T18:01:30.940Z,77.27
2022-11-02T18:03:57.810Z,77.39
2022-11-02T18:06:24.518Z,77.38
2022-11-02T18:08:51.318Z,77.92
2022-11-02T18:11:20.839Z,78.00
2022-11-02T18:13:51.649Z,77.62
2022-11-02T18:16:18.180Z,77.78
2022-11-02T18:18:46.175Z,78.20
2022-11-02T18:21:12.947Z,78.49
2022-11-02T18:23:39.858Z,78.85
2022-11-02T18:26:06.379Z,79.15
2022-11-02T18:28:33.051Z,79.81
2022-11-02T18:30:59.534Z,79.62
2022-11-02T18:33:26.102Z,79.88
2022-11-02T18:36:01.867Z,80.56
2022-11-02T18:38:28.434Z,81.28
2022-11-02T18:40:54.953Z,81.47
2022-11-02T18:43:21.772Z,82.17
2022-11-02T18:45:48.274Z,82.01
2022-11-02T18:48:14.832Z,81.91
2022-11-02T18:50:41.329Z,82.05
2022-11-02T18:53:09.741Z,81.85
2022-11-02T18:55:37.761Z,82.38
2022-11-02T18:58:04.706Z,82.67
2022-11-02T19:00:31.509Z,82.65
2022-11-02T19:02:58.101Z,82.49
2022-11-02T19:05:24.797Z,82.10
2022-11-02T19:07:51.381Z,82.27
2022-11-02T19:10:19.306Z,82.23
2022-11-02T19:12:46.015Z,82.73
2022-11-02T19:15:12.536Z,82.75
2022-11-02T19:17:39.111Z,83.15
2022-11-02T19:20:06.862Z,83.83
2022-11-02T19:22:33.532Z,83.95
2022-11-02T19:25:00.074Z,83.83
2022-11-02T19:27:28.058Z,84.42
2022-11-02T19:29:54.563Z,85.54
2022-11-02T19:32:21.233Z,85.17
2022-11-02T19:34:47.791Z,85.99
2022-11-02T19:37:14.391Z,86.06
2022-11-02T19:39:40.977Z,86.53
2022-11-02T19:42:07.739Z,86.31
2022-11-02T19:44:41.149Z,86.34
2022-11-02T19:47:09.178Z,86.44
2022-11-02T19:49:35.673Z,86.51
2022-11-02T19:52:02.259Z,86.45
2022-11-02T19:54:28.795Z,86.87
2022-11-02T19:56:55.416Z,86.72
2022-11-02T19:59:21.964Z,87.30
2022-11-02T20:01:50.069Z,87.20
2022-11-02T20:04:16.606Z,87.06
2022-11-02T20:06:44.344Z,87.22
2022-11-02T20:09:15.214Z,87.47
2022-11-02T20:11:42.046Z,87.51
2022-11-02T20:14:08.657Z,87.82
2022-11-02T20:16:35.532Z,87.75
2022-11-02T20:19:03.685Z,88.09
2022-11-02T20:21:35.666Z,88.13
2022-11-02T20:24:07.039Z,87.33
2022-11-02T20:26:35.291Z,87.27
2022-11-02T20:29:03.515Z,87.49
2022-11-02T20:31:32.068Z,87.66
2022-11-02T20:33:59.616Z,87.37
2022-11-02T20:36:27.606Z,87.38
2022-11-02T20:38:54.270Z,87.44
2022-11-02T20:41:21.762Z,87.62
2022-11-02T20:43:49.279Z,88.62
2022-11-02T20:49:14.445Z,88.62
2022-11-02T20:51:51.813Z,88.44
2022-11-02T20:54:18.365Z,88.20
2022-11-02T20:56:45.137Z,88.27
2022-11-02T20:59:11.685Z,88.01
2022-11-02T21:01:38.286Z,88.32
2022-11-02T21:04:04.853Z,88.44
2022-11-02T21:06:31.679Z,88.42
2022-11-02T21:08:59.794Z,88.62
2022-11-02T21:11:26.438Z,88.45
2022-11-02T21:13:53.085Z,88.90
2022-11-02T21:16:19.711Z,89.12
2022-11-02T21:18:46.529Z,89.54
2022-11-02T21:21:14.804Z,89.16
2022-11-02T21:23:41.487Z,89.32
2022-11-02T21:26:11.659Z,90.11
2022-11-02T21:28:39.613Z,89.81
2022-11-02T21:31:08.158Z,89.39
2022-11-02T21:33:35.424Z,89.88
2022-11-02T21:36:02.209Z,90.46
2022-11-02T21:38:29.188Z,90.03
2022-11-02T21:40:58.878Z,90.29
2022-11-02T21:43:27.255Z,90.62
2022-11-02T21:45:55.256Z,90.33
2022-11-02T21:48:22.823Z,90.19
2022-11-02T21:50:59.095Z,91.07
2022-11-02T21:53:25.675Z,90.38
2022-11-02T21:55:58.072Z,90.55
2022-11-02T21:58:24.881Z,90.63
2022-11-02T22:01:00.850Z,90.69
2022-11-02T22:03:27.607Z,89.84
2022-11-02T22:05:54.219Z,90.37
2022-11-02T22:08:20.839Z,89.85
2022-11-02T22:10:47.387Z,89.87
2022-11-02T22:13:14.291Z,89.84
2022-11-02T22:15:40.749Z,89.93
2022-11-02T22:18:08.649Z,89.95
2022-11-02T22:20:35.231Z,90.03
2022-11-02T22:23:01.865Z,90.72
2022-11-02T22:25:28.708Z,90.02
2022-11-02T22:27:55.257Z,90.42
2022-11-02T22:30:21.892Z,90.42
2022-11-02T22:32:48.519Z,90.10
2022-11-02T22:35:16.376Z,90.77
2022-11-02T22:37:42.926Z,90.95
2022-11-02T22:40:10.040Z,89.84
2022-11-02T22:42:39.843Z,90.51
2022-11-02T22:45:09.665Z,90.59
2022-11-02T22:47:36.158Z,90.56
2022-11-02T22:50:03.153Z,90.91
2022-11-02T22:52:31.006Z,90.61
2022-11-02T22:54:57.544Z,90.98
2022-11-02T22:57:24.179Z,91.20
2022-11-02T22:59:50.864Z,91.24
2022-11-02T23:02:17.440Z,91.85
2022-11-02T23:04:44.004Z,91.25
2022-11-02T23:07:10.646Z,91.21
2022-11-02T23:09:38.664Z,92.61
2022-11-02T23:12:05.501Z,92.28
2022-11-02T23:14:32.087Z,91.81
2022-11-02T23:16:58.579Z,92.61
2022-11-02T23:19:29.231Z,92.61
2022-11-02T23:21:57.304Z,93.02
2022-11-02T23:24:23.789Z,93.38
2022-11-02T23:26:51.985Z,93.75
2022-11-02T23:29:18.500Z,93.54
2022-11-02T23:31:45.028Z,93.18
2022-11-02T23:34:11.529Z,93.15
2022-11-02T23:36:38.147Z,93.65
2022-11-02T23:39:04.652Z,93.22
2022-11-02T23:41:33.153Z,94.51
2022-11-02T23:44:01.324Z,94.25
2022-11-02T23:46:27.856Z,93.55
2022-11-02T23:48:54.347Z,94.23
2022-11-02T23:51:20.957Z,94.21
2022-11-02T23:53:47.455Z,93.96
2022-11-02T23:56:16.065Z,94.24
2022-11-02T23:58:43.181Z,94.20
